createdAt,value
2018-11-02T00:00:47.680Z,99.90
2018-11-02T00:05:59.097Z,99.90
2018-11-02T00:11:11.034Z,99.90
2018-11-02T00:16:28.720Z,99.90
2018-11-02T00:21:41.451Z,99.60
2018-11-02T00:27:04.429Z,99.20
2018-11-02T00:32:17.558Z,98.60
2018-11-02T00:37:26.252Z,98.10
2018-11-02T00:42:37.704Z,97.70
2018-11-02T00:47:50.990Z,97.30
2018-11-02T00:53:05.036Z,97.20
2018-11-02T00:58:26.480Z,97.10
2018-11-02T01:03:38.963Z,97.00
2018-11-02T01:14:03.386Z,96.90
2018-11-02T01:19:17.251Z,97.50
2018-11-02T01:24:29.626Z,97.70
2018-11-02T01:34:54.653Z,97.50
2018-11-02T01:40:12.425Z,97.30
2018-11-02T01:45:20.563Z,97.20
2018-11-02T01:50:33.188Z,97.00
2018-11-02T01:55:48.535Z,96.80
2018-11-02T02:01:01.109Z,96.50
2018-11-02T02:06:18.822Z,96.60
2018-11-02T02:11:38.399Z,97.10
2018-11-02T02:16:46.167Z,96.80
2018-11-02T02:22:01.239Z,96.80
2018-11-02T02:27:11.253Z,96.80
2018-11-02T02:32:31.317Z,96.70
2018-11-02T02:37:40.743Z,96.70
2018-11-02T02:42:56.852Z,96.90
2018-11-02T02:48:14.351Z,96.30
2018-11-02T03:03:57.679Z,96.20
2018-11-02T03:09:04.299Z,95.60
2018-11-02T03:14:14.394Z,95.40
2018-11-02T03:19:41.462Z,95.30
2018-11-02T03:24:49.113Z,95.20
2018-11-02T03:30:14.884Z,95.40
2018-11-02T03:35:26.556Z,95.50
2018-11-02T03:51:04.520Z,95.60
2018-11-02T03:56:20.082Z,96.10
2018-11-02T04:01:41.122Z,96.10
2018-11-02T04:06:54.703Z,96.20
2018-11-02T04:12:08.430Z,96.30
2018-11-02T04:17:22.067Z,96.50
2018-11-02T04:22:35.545Z,96.70
2018-11-02T04:33:09.089Z,97.50
2018-11-02T04:38:23.702Z,98.30
2018-11-02T04:43:40.974Z,98.60
2018-11-02T04:48:58.801Z,99.10
2018-11-02T04:59:33.819Z,99.50
2018-11-02T05:04:51.477Z,99.90
2018-11-02T05:10:08.986Z,99.90
2018-11-02T05:25:49.605Z,99.90
2018-11-02T05:31:04.551Z,99.90
2018-11-02T05:36:34.336Z,99.90
2018-11-02T05:57:30.473Z,99.90
2018-11-02T06:23:40.279Z,99.90
2018-11-02T07:57:38.389Z,99.90
2018-11-02T08:29:12.597Z,99.20
2018-11-02T08:51:01.524Z,96.50
2018-11-02T08:56:44.781Z,94.60
2018-11-02T09:02:09.418Z,94.30
2018-11-02T09:07:55.212Z,93.60
2018-11-02T09:34:53.077Z,94.70
2018-11-02T09:40:09.882Z,94.90
2018-11-02T10:08:41.791Z,93.70
2018-11-02T10:19:39.215Z,92.40
2018-11-02T10:24:50.291Z,92.00
2018-11-02T10:30:15.126Z,91.20
2018-11-02T10:35:25.695Z,90.60
2018-11-02T10:40:53.604Z,90.20
2018-11-02T10:46:00.439Z,88.30
2018-11-02T10:51:07.667Z,87.20
2018-11-02T11:02:13.063Z,84.00
2018-11-02T11:07:50.087Z,82.00
2018-11-02T11:13:20.108Z,79.90
2018-11-02T11:24:36.281Z,77.10
2018-11-02T11:30:18.409Z,76.60
2018-11-02T11:35:34.485Z,72.90
2018-11-02T11:40:40.844Z,69.70
2018-11-02T11:46:06.011Z,70.20
2018-11-02T11:51:04.286Z,67.80
2018-11-02T11:56:12.791Z,67.10
2018-11-02T12:07:11.925Z,66.00
2018-11-02T12:18:03.017Z,67.70
2018-11-02T12:22:54.896Z,59.20
2018-11-02T12:27:59.604Z,59.20
2018-11-02T12:33:40.500Z,61.90
2018-11-02T12:37:41.319Z,58.60
2018-11-02T12:48:56.909Z,60.00
2018-11-02T12:53:57.119Z,60.00
2018-11-02T13:57:42.480Z,50.80
2018-11-02T14:02:32.822Z,51.30
2018-11-02T14:26:00.826Z,54.10
2018-11-02T14:30:50.372Z,55.10
2018-11-02T14:35:48.995Z,55.40
2018-11-02T14:40:51.659Z,55.90
2018-11-02T14:45:52.289Z,56.00
2018-11-02T14:50:53.938Z,56.30
2018-11-02T14:56:22.354Z,57.10
2018-11-02T15:01:35.314Z,57.50
2018-11-02T15:06:37.038Z,58.60
2018-11-02T15:11:41.905Z,59.20
2018-11-02T15:17:18.675Z,59.50
2018-11-02T15:46:08.488Z,61.10
2018-11-02T15:51:30.300Z,63.40
2018-11-02T15:56:28.449Z,64.50
2018-11-02T16:01:34.831Z,65.90
2018-11-02T16:06:47.930Z,67.00
2018-11-02T16:11:59.920Z,69.30
2018-11-02T16:17:17.680Z,70.70
2018-11-02T16:22:33.957Z,72.00
